createdAt,value
2018-05-24T04:33:41.393Z,1021.13
2018-05-24T04:34:41.175Z,1021.13
2018-05-24T04:35:41.210Z,1021.1
2018-05-24T04:36:41.256Z,1021.12
2018-05-24T04:37:41.270Z,1021.11
2018-05-24T04:38:41.456Z,1021.12
2018-05-24T04:39:41.573Z,1021.15
2018-05-24T04:40:41.593Z,1021.13
2018-05-24T04:41:41.724Z,1021.22
2018-05-24T04:42:42.128Z,1021.24
2018-05-24T04:43:42.164Z,1021.25
2018-05-24T04:44:42.196Z,1021.28
2018-05-24T04:45:42.232Z,1021.29
2018-05-24T04:46:42.254Z,1021.32
2018-05-24T04:47:42.301Z,1021.28
2018-05-24T04:48:42.675Z,1021.29
2018-05-24T04:49:42.710Z,1021.37
2018-05-24T04:50:42.892Z,1021.29
2018-05-24T04:51:43.353Z,1021.32
2018-05-24T04:52:43.496Z,1021.3
2018-05-24T04:53:43.801Z,1021.3
2018-05-24T04:54:44.221Z,1021.33
2018-05-24T04:55:44.250Z,1021.28
2018-05-24T04:56:44.414Z,1021.32
2018-05-24T04:57:44.456Z,1021.34
2018-05-24T04:58:44.482Z,1021.28
2018-05-24T04:59:44.898Z,1021.25
2018-05-24T05:00:44.946Z,1021.32
2018-05-24T05:01:45.075Z,1021.32
2018-05-24T05:02:45.539Z,1021.34
2018-05-24T05:03:45.536Z,1021.33
2018-05-24T05:04:45.590Z,1021.32
2018-05-24T05:05:45.813Z,1021.44
2018-05-24T05:06:45.843Z,1021.39
2018-05-24T05:07:46.186Z,1021.37
2018-05-24T05:08:46.206Z,1021.41
2018-05-24T05:09:46.236Z,1021.39
2018-05-24T05:10:46.449Z,1021.42
2018-05-24T05:11:46.314Z,1021.38
2018-05-24T05:12:46.392Z,1021.47
2018-05-24T05:13:46.379Z,1021.43
2018-05-24T05:14:46.474Z,1021.45
2018-05-24T05:15:46.446Z,1021.49
2018-05-24T05:16:46.472Z,1021.47
2018-05-24T05:17:46.960Z,1021.41
2018-05-24T05:18:46.993Z,1021.49
2018-05-24T05:19:47.030Z,1021.44
2018-05-24T05:20:47.063Z,1021.47
2018-05-24T05:21:47.095Z,1021.47
2018-05-24T05:22:47.129Z,1021.51
2018-05-24T05:23:47.165Z,1021.43
2018-05-24T05:24:48.044Z,1021.45
2018-05-24T05:25:48.313Z,1021.42
2018-05-24T05:26:48.303Z,1021.43
2018-05-24T05:27:48.339Z,1021.44
2018-05-24T05:28:48.811Z,1021.45
2018-05-24T05:29:48.846Z,1021.46
2018-05-24T05:30:49.047Z,1021.46
2018-05-24T05:31:49.108Z,1021.46
2018-05-24T05:32:49.108Z,1021.49
2018-05-24T05:33:49.154Z,1021.51
2018-05-24T05:34:49.177Z,1021.46
2018-05-24T05:35:49.234Z,1021.46
2018-05-24T05:36:49.706Z,1021.49
2018-05-24T05:37:49.725Z,1021.47
2018-05-24T05:38:49.785Z,1021.5
2018-05-24T05:39:49.808Z,1021.46
2018-05-24T05:40:49.845Z,1021.51
2018-05-24T05:41:49.883Z,1021.4
2018-05-24T05:42:49.907Z,1021.46
2018-05-24T05:43:50.165Z,1021.45
2018-05-24T05:44:50.258Z,1021.46
2018-05-24T05:45:50.297Z,1021.5
2018-05-24T05:46:50.296Z,1021.47
2018-05-24T05:47:50.297Z,1021.41
2018-05-24T05:48:50.387Z,1021.43
2018-05-24T05:49:50.370Z,1021.39
2018-05-24T05:50:50.463Z,1021.52
2018-05-24T05:51:50.760Z,1021.48
2018-05-24T05:52:50.789Z,1021.47
2018-05-24T05:53:50.819Z,1021.49
2018-05-24T05:54:50.890Z,1021.48
2018-05-24T05:55:51.153Z,1021.5
2018-05-24T05:56:51.135Z,1021.44
2018-05-24T05:57:51.153Z,1021.45
2018-05-24T05:58:51.204Z,1021.41
2018-05-24T05:59:51.233Z,1021.45
2018-05-24T06:00:51.298Z,1021.47
2018-05-24T06:01:51.358Z,1021.51
2018-05-24T06:02:51.315Z,1021.44
2018-05-24T06:03:51.335Z,1021.46
2018-05-24T06:04:51.576Z,1021.46
2018-05-24T06:05:51.915Z,1021.47
2018-05-24T06:06:51.620Z,1021.42
2018-05-24T06:07:51.672Z,1021.46
2018-05-24T06:08:51.857Z,1021.43
2018-05-24T06:09:51.892Z,1021.48
2018-05-24T06:10:52.026Z,1021.47
2018-05-24T06:11:52.033Z,1021.49
2018-05-24T06:12:52.061Z,1021.53
2018-05-24T06:13:52.130Z,1021.65
2018-05-24T06:14:52.142Z,1021.59
2018-05-24T06:15:52.186Z,1021.62
2018-05-24T06:16:52.557Z,1021.59
2018-05-24T06:17:52.588Z,1021.58
2018-05-24T06:18:52.726Z,1021.65
2018-05-24T06:19:52.936Z,1021.63
2018-05-24T06:20:52.920Z,1021.61
2018-05-24T06:21:53.021Z,1021.68
2018-05-24T06:22:54.266Z,1021.67
2018-05-24T06:23:54.077Z,1021.67
2018-05-24T06:24:54.176Z,1021.57
2018-05-24T06:25:54.163Z,1021.56
2018-05-24T06:26:54.107Z,1021.61
2018-05-24T06:27:54.201Z,1021.61
2018-05-24T06:28:54.747Z,1021.6
2018-05-24T06:29:54.719Z,1021.74
2018-05-24T06:30:54.759Z,1021.64
2018-05-24T06:31:55.187Z,1021.57
2018-05-24T06:32:55.573Z,1021.57
2018-05-24T06:33:55.629Z,1021.54
2018-05-24T06:34:55.828Z,1021.61
2018-05-24T06:35:55.864Z,1021.65
2018-05-24T06:36:56.002Z,1021.62
2018-05-24T06:37:56.392Z,1021.58
2018-05-24T06:38:56.498Z,1021.6
2018-05-24T06:39:56.466Z,1021.59
2018-05-24T06:40:56.673Z,1021.6
2018-05-24T06:41:56.788Z,1021.66
2018-05-24T06:42:56.884Z,1021.66
2018-05-24T06:43:56.959Z,1021.66
2018-05-24T06:44:57.187Z,1021.7
2018-05-24T06:45:57.218Z,1021.73
2018-05-24T06:46:57.247Z,1021.78
2018-05-24T06:47:57.277Z,1021.73
2018-05-24T06:48:57.325Z,1021.76
2018-05-24T06:49:57.439Z,1021.64
2018-05-24T06:50:57.503Z,1021.57
2018-05-24T06:51:57.671Z,1021.5
2018-05-24T06:52:57.783Z,1021.62
2018-05-24T06:53:57.719Z,1021.74
2018-05-24T06:54:57.871Z,1021.66
2018-05-24T06:55:57.990Z,1021.65
2018-05-24T06:56:57.971Z,1021.61
2018-05-24T06:57:57.863Z,1021.55
2018-05-24T06:58:58.123Z,1021.53
2018-05-24T06:59:58.247Z,1021.48
2018-05-24T07:00:58.194Z,1021.5
2018-05-24T07:01:58.355Z,1021.39
2018-05-24T07:02:58.392Z,1021.44
2018-05-24T07:03:58.439Z,1021.5
2018-05-24T07:04:58.467Z,1021.53
2018-05-24T07:05:58.570Z,1021.55
2018-05-24T07:06:58.555Z,1021.49
2018-05-24T07:07:58.580Z,1021.54
2018-05-24T07:08:58.618Z,1021.52
2018-05-24T07:09:59.064Z,1021.48
2018-05-24T07:10:59.489Z,1021.42
2018-05-24T07:11:59.480Z,1021.51
2018-05-24T07:12:59.540Z,1021.43
2018-05-24T07:13:59.582Z,1021.41
2018-05-24T07:14:59.731Z,1021.47
2018-05-24T07:15:59.765Z,1021.47
2018-05-24T07:17:00.173Z,1021.55
2018-05-24T07:18:00.578Z,1021.55
2018-05-24T07:19:00.609Z,1021.65
2018-05-24T07:20:00.798Z,1021.63
2018-05-24T07:21:00.739Z,1021.72
2018-05-24T07:22:01.190Z,1021.73
2018-05-24T07:23:01.233Z,1021.69
2018-05-24T07:24:01.276Z,1021.77
2018-05-24T07:25:01.468Z,1021.69
2018-05-24T07:26:01.343Z,1021.78
2018-05-24T07:27:01.577Z,1021.77
2018-05-24T07:28:01.754Z,1021.68
2018-05-24T07:29:01.810Z,1021.76
2018-05-24T07:30:01.875Z,1021.74
2018-05-24T07:31:01.941Z,1021.68
2018-05-24T07:32:01.902Z,1021.73
2018-05-24T07:33:01.959Z,1021.7
2018-05-24T07:34:01.994Z,1021.67
2018-05-24T07:35:02.035Z,1021.68
2018-05-24T07:36:02.082Z,1021.75
2018-05-24T07:37:02.131Z,1021.64
2018-05-24T07:38:02.295Z,1021.69
2018-05-24T07:39:02.347Z,1021.72
2018-05-24T07:40:02.656Z,1021.64
2018-05-24T07:41:02.706Z,1021.59
2018-05-24T07:42:02.731Z,1021.65
2018-05-24T07:43:02.946Z,1021.64
2018-05-24T07:44:02.981Z,1021.67
2018-05-24T07:45:03.471Z,1021.72
2018-05-24T07:46:03.501Z,1021.71
2018-05-24T07:47:03.531Z,1021.63
2018-05-24T07:48:03.971Z,1021.72
2018-05-24T07:49:04.331Z,1021.75
2018-05-24T07:50:04.773Z,1021.77
2018-05-24T07:51:04.775Z,1021.85
2018-05-24T07:52:04.812Z,1021.83
2018-05-24T07:53:05.089Z,1021.94
2018-05-24T07:54:05.442Z,1021.93
2018-05-24T07:55:05.878Z,1021.84
2018-05-24T07:56:05.510Z,1021.87
2018-05-24T07:57:05.556Z,1021.98
2018-05-24T07:58:05.611Z,1021.86
2018-05-24T07:59:05.618Z,1021.91
2018-05-24T08:00:10.225Z,1021.86
2018-05-24T08:01:06.420Z,1022.02
2018-05-24T08:02:06.456Z,1021.84
2018-05-24T08:03:06.513Z,1022.03
2018-05-24T08:04:06.601Z,1021.96
2018-05-24T08:05:06.729Z,1021.85
2018-05-24T08:06:06.785Z,1021.76
2018-05-24T08:07:06.833Z,1021.8
2018-05-24T08:08:07.068Z,1021.73
2018-05-24T08:09:07.164Z,1021.7
2018-05-24T08:10:07.208Z,1021.78
2018-05-24T08:11:07.239Z,1021.89
2018-05-24T08:12:07.278Z,1021.83
2018-05-24T08:13:07.514Z,1021.81
2018-05-24T08:14:07.642Z,1021.78
2018-05-24T08:15:07.632Z,1021.85
2018-05-24T08:16:07.661Z,1021.89
2018-05-24T08:17:07.685Z,1021.86
2018-05-24T08:18:07.744Z,1021.87
2018-05-24T08:19:08.175Z,1021.88
2018-05-24T08:20:08.218Z,1021.9
2018-05-24T08:21:08.330Z,1021.89
2018-05-24T08:22:08.305Z,1021.95
2018-05-24T08:23:08.350Z,1021.92
2018-05-24T08:24:08.393Z,1021.89
2018-05-24T08:25:08.645Z,1021.85
2018-05-24T08:26:08.482Z,1021.86
2018-05-24T08:27:08.529Z,1021.9
2018-05-24T08:28:08.754Z,1021.92
2018-05-24T08:29:08.789Z,1021.86
2018-05-24T08:30:08.837Z,1021.9
2018-05-24T08:31:08.888Z,1021.86
2018-05-24T08:32:08.921Z,1021.87
2018-05-24T08:33:08.968Z,1021.97
2018-05-24T08:34:09.017Z,1021.93
2018-05-24T08:35:09.065Z,1021.93
2018-05-24T08:36:09.109Z,1022
2018-05-24T08:37:09.146Z,1021.88
2018-05-24T08:38:09.194Z,1021.85
2018-05-24T08:39:09.458Z,1021.86
2018-05-24T08:40:09.495Z,1021.88
2018-05-24T08:41:09.732Z,1021.76
2018-05-24T08:42:10.321Z,1021.74
2018-05-24T08:43:10.345Z,1021.78
2018-05-24T08:44:10.394Z,1021.75
2018-05-24T08:45:10.870Z,1021.67
2018-05-24T08:46:10.899Z,1021.58
2018-05-24T08:47:11.040Z,1021.53
2018-05-24T08:48:10.989Z,1021.49
2018-05-24T08:49:11.062Z,1021.55
2018-05-24T08:50:11.374Z,1021.61
2018-05-24T08:51:11.849Z,1021.74
2018-05-24T08:52:12.090Z,1022.03
2018-05-24T08:53:11.962Z,1021.75
2018-05-24T08:54:11.998Z,1021.55
2018-05-24T08:55:12.480Z,1021.41
2018-05-24T08:56:12.524Z,1021.48
2018-05-24T08:57:12.721Z,1021.56
2018-05-24T08:58:12.771Z,1021.51
2018-05-24T08:59:12.820Z,1021.5
2018-05-24T09:00:22.385Z,1021.57
2018-05-24T09:01:23.066Z,1021.63
2018-05-24T09:02:23.129Z,1021.7
2018-05-24T09:03:23.127Z,1021.81
2018-05-24T09:04:23.296Z,1021.95
2018-05-24T09:05:23.361Z,1021.99
2018-05-24T09:06:23.536Z,1022.05
2018-05-24T09:07:23.727Z,1021.96
2018-05-24T09:08:23.772Z,1021.97
2018-05-24T09:09:23.854Z,1021.93
2018-05-24T09:10:23.951Z,1022.01
2018-05-24T09:11:24.327Z,1022.01
2018-05-24T09:12:24.465Z,1021.97
2018-05-24T09:13:24.423Z,1021.96
2018-05-24T09:14:24.474Z,1021.84
2018-05-24T09:15:24.485Z,1021.87
2018-05-24T09:16:24.929Z,1021.97
2018-05-24T09:17:24.970Z,1021.95
2018-05-24T09:18:25.017Z,1021.88
2018-05-24T09:19:25.113Z,1022.12
2018-05-24T09:20:25.143Z,1021.98
2018-05-24T09:21:25.587Z,1021.84
2018-05-24T09:22:25.703Z,1021.83
2018-05-24T09:23:26.132Z,1021.77
2018-05-24T09:24:26.545Z,1021.66
2018-05-24T09:25:27.027Z,1021.47
2018-05-24T09:26:27.473Z,1021.55
2018-05-24T09:27:27.517Z,1021.49
2018-05-24T09:28:27.560Z,1021.54
2018-05-24T09:29:27.715Z,1021.53
2018-05-24T09:30:27.693Z,1021.66
2018-05-24T09:31:27.753Z,1021.69
2018-05-24T09:32:27.904Z,1021.59
2018-05-24T09:33:28.077Z,1021.63
2018-05-24T09:34:28.008Z,1021.79
2018-05-24T09:35:28.168Z,1021.85
2018-05-24T09:36:28.373Z,1021.81
2018-05-24T09:37:28.646Z,1021.87
2018-05-24T09:38:28.705Z,1021.79
2018-05-24T09:39:28.729Z,1021.88
2018-05-24T09:40:28.774Z,1021.75
2018-05-24T09:41:28.814Z,1021.75
2018-05-24T09:42:28.856Z,1021.72
2018-05-24T09:43:28.894Z,1021.89
2018-05-24T09:44:28.941Z,1021.75
2018-05-24T09:45:28.991Z,1021.84
2018-05-24T09:46:29.187Z,1021.83
2018-05-24T09:47:29.216Z,1021.97
2018-05-24T09:48:29.333Z,1021.88
2018-05-24T09:49:29.484Z,1021.95
2018-05-24T09:50:29.528Z,1021.8
2018-05-24T09:51:29.879Z,1021.83
2018-05-24T09:52:29.613Z,1021.82
2018-05-24T09:53:29.648Z,1021.85
2018-05-24T09:54:29.692Z,1021.84
2018-05-24T09:55:29.731Z,1021.84
2018-05-24T09:56:29.946Z,1021.9
2018-05-24T09:57:29.982Z,1021.75
2018-05-24T09:58:30.399Z,1021.73
2018-05-24T09:59:30.445Z,1021.85
2018-05-24T10:00:30.482Z,1021.78
2018-05-24T10:01:30.688Z,1021.73
2018-05-24T10:02:30.729Z,1021.71
2018-05-24T10:03:30.784Z,1021.71
2018-05-24T10:04:31.268Z,1021.66
2018-05-24T10:05:31.377Z,1021.65
2018-05-24T10:06:31.326Z,1021.82
2018-05-24T10:07:31.389Z,1021.64
2018-05-24T10:08:31.398Z,1021.76
2018-05-24T10:09:31.446Z,1021.76
2018-05-24T10:10:32.237Z,1021.83
2018-05-24T10:11:32.187Z,1021.77
2018-05-24T10:12:32.268Z,1021.74
2018-05-24T10:13:32.203Z,1021.77
2018-05-24T10:14:32.198Z,1021.8
2018-05-24T10:15:32.315Z,1021.84
2018-05-24T10:16:32.965Z,1021.74
2018-05-24T10:17:32.887Z,1021.8
2018-05-24T10:18:33.041Z,1021.73
2018-05-24T10:19:33.417Z,1021.76
2018-05-24T10:20:33.550Z,1021.77
2018-05-24T10:21:33.872Z,1021.89
2018-05-24T10:22:34.368Z,1021.78
2018-05-24T10:23:34.489Z,1021.84
2018-05-24T10:24:34.507Z,1021.85
2018-05-24T10:25:35.042Z,1021.93
2018-05-24T10:26:35.381Z,1021.99
2018-05-24T10:27:35.175Z,1022.04
2018-05-24T10:28:35.363Z,1022.08
2018-05-24T10:29:35.320Z,1022.18
2018-05-24T10:30:35.390Z,1022.25
2018-05-24T10:31:35.568Z,1022.1
2018-05-24T10:32:35.481Z,1021.73
2018-05-24T10:33:35.483Z,1021.07
2018-05-24T10:34:35.520Z,1020.77
2018-05-24T10:35:35.700Z,1020.72
2018-05-24T10:36:35.779Z,1020.77
2018-05-24T10:37:36.541Z,1020.72
2018-05-24T10:38:36.295Z,1020.79
2018-05-24T10:39:36.393Z,1020.8
2018-05-24T10:40:36.355Z,1020.68
2018-05-24T10:41:36.401Z,1020.76
2018-05-24T10:42:36.425Z,1020.82
2018-05-24T10:43:36.693Z,1020.69
2018-05-24T10:44:36.748Z,1020.67
2018-05-24T10:45:36.761Z,1020.79
2018-05-24T10:46:36.948Z,1020.72
2018-05-24T10:47:37.262Z,1020.72
2018-05-24T10:48:37.577Z,1020.66
2018-05-24T10:49:37.508Z,1020.63
2018-05-24T10:50:37.838Z,1020.63
2018-05-24T10:51:37.602Z,1020.7
2018-05-24T10:52:37.626Z,1020.67
2018-05-24T10:53:37.641Z,1020.61
2018-05-24T10:54:37.682Z,1020.55
2018-05-24T10:55:37.735Z,1020.52
2018-05-24T10:56:37.774Z,1020.5
2018-05-24T10:57:37.807Z,1020.71
2018-05-24T10:58:37.879Z,1020.63
2018-05-24T10:59:37.973Z,1020.53
2018-05-24T11:00:37.901Z,1020.66
2018-05-24T11:01:38.352Z,1020.65
2018-05-24T11:02:39.059Z,1020.53
2018-05-24T11:03:39.047Z,1020.45
2018-05-24T11:04:39.553Z,1020.52
2018-05-24T11:05:39.582Z,1020.53
2018-05-24T11:06:39.957Z,1020.38
2018-05-24T11:07:40.031Z,1020.38
2018-05-24T11:08:40.476Z,1020.43
2018-05-24T11:09:40.809Z,1020.43
2018-05-24T11:10:41.028Z,1020.42
2018-05-24T11:11:41.423Z,1020.52
2018-05-24T11:12:41.344Z,1020.44
2018-05-24T11:13:41.760Z,1020.47
2018-05-24T11:14:41.814Z,1020.44
2018-05-24T11:15:42.200Z,1020.4
2018-05-24T11:16:42.250Z,1020.48
2018-05-24T11:17:42.360Z,1020.39
2018-05-24T11:18:42.488Z,1020.39
2018-05-24T11:19:42.528Z,1020.44
2018-05-24T11:20:42.583Z,1020.44
2018-05-24T11:21:42.990Z,1020.39
2018-05-24T11:22:43.390Z,1020.43
2018-05-24T11:23:43.380Z,1020.38
2018-05-24T11:24:43.777Z,1020.4
2018-05-24T11:25:43.809Z,1020.36
2018-05-24T11:26:43.996Z,1020.39
2018-05-24T11:27:44.307Z,1020.32
2018-05-24T11:28:44.348Z,1020.32
2018-05-24T11:29:44.314Z,1020.28
2018-05-24T11:30:44.711Z,1020.3
2018-05-24T11:31:44.897Z,1020.26
2018-05-24T11:32:44.915Z,1020.23
2018-05-24T11:33:45.377Z,1020.18
2018-05-24T11:34:45.415Z,1020.17
2018-05-24T11:35:45.458Z,1020.18
2018-05-24T11:36:45.496Z,1020.23
2018-05-24T11:37:45.535Z,1020.27
2018-05-24T11:38:45.592Z,1020.19
2018-05-24T11:39:45.598Z,1020.14
2018-05-24T11:40:45.696Z,1020.04
2018-05-24T11:41:45.670Z,1020.09
2018-05-24T11:42:46.399Z,1020
2018-05-24T11:43:46.424Z,1019.97
2018-05-24T11:44:46.452Z,1020.12
2018-05-24T11:45:46.501Z,1020.02
2018-05-24T11:46:46.531Z,1020.06
2018-05-24T11:47:46.562Z,1020
2018-05-24T11:48:47.080Z,1019.93
2018-05-24T11:49:47.609Z,1020.06
2018-05-24T11:50:47.610Z,1019.96
2018-05-24T11:51:47.678Z,1019.99
2018-05-24T11:52:48.041Z,1019.89
2018-05-24T11:53:48.098Z,1019.88
2018-05-24T11:54:48.116Z,1019.88
2018-05-24T11:55:48.172Z,1019.93
2018-05-24T11:56:48.865Z,1020.02
2018-05-24T11:57:48.895Z,1019.92
2018-05-24T11:58:48.918Z,1019.88
2018-05-24T11:59:49.077Z,1019.98
2018-05-24T12:00:49.111Z,1019.9
2018-05-24T12:01:49.618Z,1019.9
2018-05-24T12:02:49.636Z,1019.87
2018-05-24T12:03:49.795Z,1019.92
2018-05-24T12:04:49.827Z,1019.97
2018-05-24T12:05:50.003Z,1019.87
2018-05-24T12:06:50.147Z,1019.76
2018-05-24T12:07:50.450Z,1019.82
2018-05-24T12:08:50.505Z,1019.81
2018-05-24T12:09:50.830Z,1019.86
2018-05-24T12:10:50.877Z,1019.85
2018-05-24T12:11:52.004Z,1019.77
2018-05-24T12:12:51.882Z,1019.75
2018-05-24T12:13:51.655Z,1019.67
2018-05-24T12:14:52.080Z,1019.66
2018-05-24T12:15:52.121Z,1019.55
2018-05-24T12:16:52.173Z,1019.65
2018-05-24T12:17:52.204Z,1019.74
2018-05-24T12:18:52.272Z,1019.71
2018-05-24T12:19:52.319Z,1019.63
2018-05-24T12:20:52.387Z,1019.55
2018-05-24T12:21:52.395Z,1019.59
2018-05-24T12:22:52.846Z,1019.76
2018-05-24T12:23:53.175Z,1019.7
2018-05-24T12:24:53.216Z,1019.61
2018-05-24T12:25:53.390Z,1019.55
2018-05-24T12:26:53.432Z,1019.58
2018-05-24T12:27:53.461Z,1019.55
2018-05-24T12:28:53.531Z,1019.54
2018-05-24T12:29:53.677Z,1019.53
2018-05-24T12:30:53.887Z,1019.5
2018-05-24T12:31:53.907Z,1019.58
2018-05-24T12:32:54.268Z,1019.57
2018-05-24T12:33:54.066Z,1019.52
2018-05-24T12:34:54.072Z,1019.56
2018-05-24T12:35:54.189Z,1019.55
2018-05-24T12:36:54.169Z,1019.53
2018-05-24T12:37:54.663Z,1019.41
2018-05-24T12:38:55.180Z,1019.44
2018-05-24T12:39:55.544Z,1019.43
2018-05-24T12:40:55.603Z,1019.46
2018-05-24T12:41:55.776Z,1019.63
2018-05-24T12:42:55.625Z,1019.51
2018-05-24T12:43:56.005Z,1019.55
2018-05-24T12:44:55.727Z,1019.51
2018-05-24T12:45:55.785Z,1019.44
2018-05-24T12:46:55.765Z,1019.43
2018-05-24T12:47:55.808Z,1019.34
2018-05-24T12:48:56.266Z,1019.39
2018-05-24T12:49:56.304Z,1019.37
2018-05-24T12:50:56.618Z,1019.34
2018-05-24T12:51:56.789Z,1019.36
2018-05-24T12:52:56.989Z,1019.36
2018-05-24T12:53:57.023Z,1019.32
2018-05-24T12:54:57.256Z,1019.36
2018-05-24T12:55:57.282Z,1019.29
2018-05-24T12:56:57.604Z,1019.32
2018-05-24T12:57:57.400Z,1019.23
2018-05-24T12:58:57.641Z,1019.26
2018-05-24T12:59:57.768Z,1019.29
2018-05-24T13:00:57.480Z,1019.24
2018-05-24T13:01:57.516Z,1019.14
2018-05-24T13:02:57.659Z,1019.29
2018-05-24T13:03:58.060Z,1019.2
2018-05-24T13:04:58.064Z,1019.21
2018-05-24T13:05:58.091Z,1019.2
2018-05-24T13:06:58.128Z,1019.16
2018-05-24T13:07:58.276Z,1019.23
2018-05-24T13:08:58.302Z,1019.18
2018-05-24T13:09:58.560Z,1019.13
2018-05-24T13:10:58.409Z,1018.99
2018-05-24T13:11:58.482Z,1019.08
2018-05-24T13:12:58.447Z,1019.05
2018-05-24T13:13:58.490Z,1019.13
2018-05-24T13:14:58.524Z,1019.06
2018-05-24T13:15:58.582Z,1019.01
2018-05-24T13:16:59.040Z,1018.97
2018-05-24T13:17:59.193Z,1018.92
2018-05-24T13:18:59.596Z,1019
2018-05-24T13:19:59.900Z,1019
2018-05-24T13:21:01.428Z,1019.11
2018-05-24T13:21:59.908Z,1018.98
2018-05-24T13:22:59.951Z,1018.95
2018-05-24T13:24:00.285Z,1018.91
2018-05-24T13:25:00.069Z,1018.93
2018-05-24T13:26:00.344Z,1018.9
2018-05-24T13:27:00.392Z,1018.82
2018-05-24T13:28:00.415Z,1018.83
2018-05-24T13:29:00.828Z,1018.72
2018-05-24T13:30:00.847Z,1018.79
2018-05-24T13:31:00.875Z,1018.86
2018-05-24T13:32:00.950Z,1018.75
2018-05-24T13:33:01.254Z,1018.79
2018-05-24T13:34:00.994Z,1018.81
2018-05-24T13:35:01.033Z,1018.73
2018-05-24T13:36:01.085Z,1018.76
2018-05-24T13:37:01.124Z,1018.73
2018-05-24T13:38:01.326Z,1018.75
2018-05-24T13:39:01.678Z,1018.75
2018-05-24T13:40:01.663Z,1018.75
2018-05-24T13:41:01.704Z,1018.72
2018-05-24T13:42:02.016Z,1018.76
2018-05-24T13:43:01.771Z,1018.79
2018-05-24T13:44:01.798Z,1018.74
2018-05-24T13:45:02.391Z,1018.78
2018-05-24T13:46:02.665Z,1018.67
2018-05-24T13:47:02.447Z,1018.67
2018-05-24T13:48:02.484Z,1018.6
2018-05-24T13:49:02.562Z,1018.65
2018-05-24T13:50:02.558Z,1018.7
2018-05-24T13:51:02.587Z,1018.61
2018-05-24T13:52:02.628Z,1018.65
2018-05-24T13:53:02.690Z,1018.61
2018-05-24T13:54:02.710Z,1018.6
2018-05-24T13:55:02.775Z,1018.63
2018-05-24T13:56:02.815Z,1018.61
2018-05-24T13:57:02.946Z,1018.59
2018-05-24T13:58:02.929Z,1018.56
2018-05-24T13:59:02.915Z,1018.59
2018-05-24T14:00:09.202Z,1018.52
2018-05-24T14:01:02.973Z,1018.52
2018-05-24T14:02:03.036Z,1018.59
2018-05-24T14:03:03.049Z,1018.53
2018-05-24T14:04:03.091Z,1018.54
2018-05-24T14:05:03.385Z,1018.56
2018-05-24T14:06:03.545Z,1018.54
2018-05-24T14:07:03.471Z,1018.56
2018-05-24T14:08:03.498Z,1018.59
2018-05-24T14:09:03.801Z,1018.65
2018-05-24T14:10:03.838Z,1018.69
2018-05-24T14:11:03.904Z,1018.54
2018-05-24T14:12:04.120Z,1018.57
2018-05-24T14:13:04.158Z,1018.56
2018-05-24T14:14:04.373Z,1018.5
2018-05-24T14:15:04.588Z,1018.42
2018-05-24T14:16:04.555Z,1018.47
2018-05-24T14:17:04.593Z,1018.4
2018-05-24T14:18:04.913Z,1018.43
2018-05-24T14:19:05.407Z,1018.48
2018-05-24T14:20:05.443Z,1018.41
2018-05-24T14:21:05.913Z,1018.35
2018-05-24T14:22:05.949Z,1018.52
2018-05-24T14:23:05.989Z,1018.44
2018-05-24T14:24:06.025Z,1018.42
2018-05-24T14:25:06.059Z,1018.37
2018-05-24T14:26:06.162Z,1018.34
2018-05-24T14:27:06.141Z,1018.35
2018-05-24T14:28:06.498Z,1018.22
2018-05-24T14:29:06.826Z,1018.37
2018-05-24T14:30:07.105Z,1018.34
2018-05-24T14:31:07.362Z,1018.44
2018-05-24T14:32:07.402Z,1018.4
2018-05-24T14:33:07.443Z,1018.3
2018-05-24T14:34:07.480Z,1018.35
2018-05-24T14:35:07.965Z,1018.23
2018-05-24T14:36:08.160Z,1018.26
2018-05-24T14:37:08.207Z,1018.31
2018-05-24T14:38:08.675Z,1018.41
2018-05-24T14:39:08.718Z,1018.28
2018-05-24T14:40:08.915Z,1018.33
2018-05-24T14:41:08.959Z,1018.27
2018-05-24T14:42:09.462Z,1018.36
2018-05-24T14:43:09.465Z,1018.34
2018-05-24T14:44:09.677Z,1018.28
2018-05-24T14:45:09.886Z,1018.22
2018-05-24T14:46:09.916Z,1018.24
2018-05-24T14:47:09.959Z,1018.25
2018-05-24T14:48:09.995Z,1018.27
2018-05-24T14:49:10.031Z,1018.3
2018-05-24T14:50:10.249Z,1018.27
2018-05-24T14:51:10.308Z,1018.28
2018-05-24T14:52:10.776Z,1018.25
2018-05-24T14:53:10.853Z,1018.28
2018-05-24T14:54:10.886Z,1018.23
2018-05-24T14:55:10.935Z,1018.21
2018-05-24T14:56:10.966Z,1018.21
2018-05-24T14:57:10.998Z,1018.19
2018-05-24T14:58:11.042Z,1018.14
2018-05-24T14:59:11.221Z,1018.25
2018-05-24T15:00:11.679Z,1018.13
2018-05-24T15:01:11.710Z,1018.09
2018-05-24T15:02:11.914Z,1018.23
2018-05-24T15:03:12.244Z,1018.2
2018-05-24T15:04:12.276Z,1018.15
2018-05-24T15:05:12.315Z,1018.19
2018-05-24T15:06:12.758Z,1018.12
2018-05-24T15:07:12.802Z,1018.17
2018-05-24T15:08:12.842Z,1018.17
2018-05-24T15:09:13.007Z,1018.09
2018-05-24T15:10:12.915Z,1018.07
2018-05-24T15:11:13.300Z,1018.1
2018-05-24T15:12:13.766Z,1018.09
2018-05-24T15:13:13.853Z,1018.06
2018-05-24T15:14:14.145Z,1018.07
2018-05-24T15:15:14.046Z,1018.05
2018-05-24T15:16:13.926Z,1018.1
2018-05-24T15:17:13.959Z,1018.02
2018-05-24T15:18:14.000Z,1018.08
2018-05-24T15:19:14.326Z,1018.03
2018-05-24T15:20:14.073Z,1018.06
2018-05-24T15:21:15.037Z,1018.07
2018-05-24T15:22:14.839Z,1017.98
2018-05-24T15:23:14.838Z,1018.07
2018-05-24T15:24:15.694Z,1018.08
2018-05-24T15:25:15.645Z,1017.97
2018-05-24T15:26:15.700Z,1018.08
2018-05-24T15:27:15.718Z,1018.05
2018-05-24T15:28:15.769Z,1017.97
2018-05-24T15:29:16.056Z,1017.98
2018-05-24T15:30:16.301Z,1018.14
2018-05-24T15:31:16.340Z,1018.03
2018-05-24T15:32:16.729Z,1017.96
2018-05-24T15:33:16.457Z,1018
2018-05-24T15:34:16.466Z,1018.01
2018-05-24T15:35:16.546Z,1017.97
2018-05-24T15:36:16.533Z,1017.99
2018-05-24T15:37:17.218Z,1018.16
2018-05-24T15:38:17.180Z,1017.87
2018-05-24T15:39:17.434Z,1017.87
2018-05-24T15:40:17.510Z,1017.99
2018-05-24T15:41:17.791Z,1017.92
2018-05-24T15:42:17.845Z,1017.9
2018-05-24T15:43:17.871Z,1017.81
2018-05-24T15:44:18.216Z,1017.89
2018-05-24T15:45:18.545Z,1017.9
2018-05-24T15:46:18.498Z,1017.89
2018-05-24T15:47:19.058Z,1017.86
2018-05-24T15:48:19.073Z,1017.88
2018-05-24T15:49:19.063Z,1017.83
2018-05-24T15:50:18.955Z,1017.8
2018-05-24T15:51:19.171Z,1017.82
2018-05-24T15:52:18.977Z,1017.82
2018-05-24T15:53:19.014Z,1017.78
2018-05-24T15:54:19.001Z,1017.76
2018-05-24T15:55:19.084Z,1017.93
2018-05-24T15:56:19.177Z,1017.72
2018-05-24T15:57:19.121Z,1017.77
2018-05-24T15:58:19.150Z,1017.72
2018-05-24T15:59:19.624Z,1017.74
2018-05-24T16:00:23.393Z,1017.91
2018-05-24T16:01:23.436Z,1017.78
2018-05-24T16:02:23.478Z,1017.75
2018-05-24T16:03:23.708Z,1017.94
2018-05-24T16:04:23.528Z,1017.78
2018-05-24T16:05:23.625Z,1017.73
2018-05-24T16:06:23.656Z,1017.81
2018-05-24T16:07:23.721Z,1017.68
2018-05-24T16:08:23.767Z,1017.75
2018-05-24T16:09:23.756Z,1017.79
2018-05-24T16:10:23.815Z,1017.8
2018-05-24T16:11:23.865Z,1017.7
2018-05-24T16:12:23.896Z,1017.88
2018-05-24T16:13:23.935Z,1017.73
2018-05-24T16:14:23.960Z,1017.74
2018-05-24T16:15:24.179Z,1017.8
2018-05-24T16:16:24.051Z,1017.8
2018-05-24T16:17:24.088Z,1017.83
2018-05-24T16:18:24.588Z,1017.8
2018-05-24T16:19:24.577Z,1017.85
2018-05-24T16:20:24.627Z,1017.92
2018-05-24T16:21:24.674Z,1017.8
2018-05-24T16:22:24.708Z,1017.91
2018-05-24T16:23:25.375Z,1017.83
2018-05-24T16:24:25.393Z,1017.81
2018-05-24T16:25:25.868Z,1017.84
2018-05-24T16:26:25.559Z,1017.77
2018-05-24T16:27:25.562Z,1017.79
2018-05-24T16:28:25.557Z,1017.84
2018-05-24T16:29:25.961Z,1017.89
2018-05-24T16:30:25.956Z,1017.85
2018-05-24T16:31:26.132Z,1017.87
2018-05-24T16:32:25.969Z,1017.9
2018-05-24T16:33:25.737Z,1017.91
2018-05-24T16:34:26.121Z,1017.88
2018-05-24T16:35:26.127Z,1017.85
2018-05-24T16:36:26.073Z,1017.92
2018-05-24T16:37:26.579Z,1017.85
2018-05-24T16:38:26.533Z,1017.81
2018-05-24T16:39:26.642Z,1017.9
2018-05-24T16:40:26.668Z,1017.93
2018-05-24T16:41:26.657Z,1017.93
2018-05-24T16:42:26.680Z,1017.91
2018-05-24T16:43:26.712Z,1017.96